createdAt,value
2023-02-22T00:01:35.620Z,9.57
2023-02-22T00:04:10.228Z,10.97
2023-02-22T00:06:39.648Z,9.90
2023-02-22T00:09:09.637Z,9.70
2023-02-22T00:11:39.015Z,9.63
2023-02-22T00:14:08.495Z,8.33
2023-02-22T00:16:37.930Z,9.53
2023-02-22T00:19:13.349Z,9.10
2023-02-22T00:21:44.819Z,8.73
2023-02-22T00:24:23.305Z,10.50
2023-02-22T00:26:55.561Z,9.23
2023-02-22T00:29:26.549Z,10.07
2023-02-22T00:32:01.761Z,10.37
2023-02-22T00:34:33.821Z,9.87
2023-02-22T00:37:04.418Z,10.97
2023-02-22T00:39:34.005Z,10.20
2023-02-22T00:42:04.052Z,9.83
2023-02-22T00:44:33.497Z,10.97
2023-02-22T00:47:04.817Z,10.20
2023-02-22T00:49:37.080Z,9.90
2023-02-22T00:52:07.832Z,11.10
2023-02-22T00:54:37.433Z,11.53
2023-02-22T00:57:07.367Z,10.17
2023-02-22T00:59:36.739Z,11.40
2023-02-22T01:02:06.557Z,10.03
2023-02-22T01:04:38.875Z,9.67
2023-02-22T01:07:08.808Z,30.13
2023-02-22T01:09:39.626Z,20.50
2023-02-22T01:12:10.067Z,21.23
2023-02-22T01:14:40.190Z,14.73
2023-02-22T01:17:10.209Z,15.20
2023-02-22T01:19:44.691Z,12.07
2023-02-22T01:22:14.084Z,11.40
2023-02-22T01:24:43.662Z,24.67
2023-02-22T01:27:13.654Z,16.23
2023-02-22T01:29:43.322Z,13.97
2023-02-22T01:32:13.691Z,16.00
2023-02-22T01:34:46.608Z,14.10
2023-02-22T01:37:16.162Z,13.83
2023-02-22T01:39:45.577Z,14.80
2023-02-22T01:42:14.988Z,11.73
2023-02-22T01:44:44.406Z,14.13
2023-02-22T01:47:13.903Z,12.57
2023-02-22T01:49:49.034Z,12.57
2023-02-22T01:52:21.591Z,12.97
2023-02-22T01:54:52.837Z,13.33
2023-02-22T01:57:26.318Z,12.67
2023-02-22T01:59:58.893Z,14.03
2023-02-22T02:02:28.868Z,11.50
2023-02-22T02:05:00.949Z,12.33
2023-02-22T02:07:30.709Z,12.87
2023-02-22T02:10:01.831Z,14.93
2023-02-22T02:12:34.171Z,13.33
2023-02-22T02:15:25.296Z,13.27
2023-02-22T02:17:57.898Z,13.37
2023-02-22T02:20:32.615Z,12.70
2023-02-22T02:23:10.563Z,14.10
2023-02-22T02:26:03.970Z,13.00
2023-02-22T02:29:00.860Z,14.73
2023-02-22T02:32:15.245Z,13.67
2023-02-22T02:34:52.602Z,13.67
2023-02-22T02:37:26.827Z,13.20
2023-02-22T02:39:59.788Z,13.07
2023-02-22T02:42:36.016Z,11.53
2023-02-22T02:45:09.977Z,11.83
2023-02-22T02:47:41.341Z,12.43
2023-02-22T02:50:17.145Z,12.30
2023-02-22T02:52:50.347Z,12.30
2023-02-22T02:55:20.714Z,12.70
2023-02-22T02:57:50.126Z,14.33
2023-02-22T03:00:24.960Z,13.93
2023-02-22T03:03:01.862Z,12.10
2023-02-22T03:05:48.538Z,13.60
2023-02-22T03:08:21.262Z,13.50
2023-02-22T03:10:58.730Z,12.57
2023-02-22T03:13:39.077Z,13.40
2023-02-22T03:16:19.217Z,14.73
2023-02-22T03:18:53.382Z,14.00
2023-02-22T03:21:29.318Z,15.00
2023-02-22T03:24:05.921Z,13.33
2023-02-22T03:26:40.926Z,15.53
2023-02-22T03:29:13.066Z,16.23
2023-02-22T03:31:48.511Z,14.63
2023-02-22T03:34:21.969Z,13.60
2023-02-22T03:36:58.616Z,15.37
2023-02-22T03:39:31.253Z,15.50
2023-02-22T03:42:04.525Z,14.00
2023-02-22T03:44:35.256Z,14.30
2023-02-22T03:47:09.016Z,14.20
2023-02-22T03:49:41.372Z,14.40
2023-02-22T03:52:13.964Z,13.00
2023-02-22T03:54:43.850Z,15.00
2023-02-22T03:57:16.992Z,14.83
2023-02-22T03:59:46.658Z,15.13
2023-02-22T04:02:19.071Z,14.00
2023-02-22T04:04:48.720Z,13.40
2023-02-22T04:07:21.408Z,14.70
2023-02-22T04:09:51.076Z,13.90
2023-02-22T04:12:20.671Z,13.73
2023-02-22T04:14:50.065Z,15.70
2023-02-22T04:17:19.507Z,13.90
2023-02-22T04:19:48.935Z,13.17
2023-02-22T04:22:22.092Z,13.30
2023-02-22T04:24:51.687Z,14.40
2023-02-22T04:27:21.237Z,13.37
2023-02-22T04:29:50.666Z,12.20
2023-02-22T04:32:22.870Z,12.67
2023-02-22T04:34:52.727Z,11.00
2023-02-22T04:37:24.730Z,13.07
2023-02-22T04:39:54.168Z,12.23
2023-02-22T04:42:23.579Z,10.07
2023-02-22T04:44:52.958Z,11.57
2023-02-22T04:47:22.416Z,10.80
2023-02-22T04:49:51.850Z,11.03
2023-02-22T04:52:23.960Z,11.93
2023-02-22T04:54:53.658Z,9.57
2023-02-22T04:57:23.140Z,10.33
2023-02-22T04:59:52.823Z,10.73
2023-02-22T05:02:22.738Z,10.57
2023-02-22T05:04:52.213Z,10.43
2023-02-22T05:07:24.322Z,10.93
2023-02-22T05:09:53.693Z,10.80
2023-02-22T05:12:23.067Z,9.73
2023-02-22T05:14:52.997Z,10.97
2023-02-22T05:17:22.358Z,10.87
2023-02-22T05:19:51.773Z,10.80
2023-02-22T05:22:24.513Z,12.20
2023-02-22T05:24:54.478Z,11.30
2023-02-22T05:27:24.710Z,10.47
2023-02-22T05:29:54.125Z,10.03
2023-02-22T05:32:23.508Z,9.27
2023-02-22T05:34:52.955Z,10.17
2023-02-22T05:37:25.171Z,10.47
2023-02-22T05:39:55.962Z,9.93
2023-02-22T05:42:25.319Z,9.67
2023-02-22T05:44:54.735Z,10.10
2023-02-22T05:47:24.144Z,9.60
2023-02-22T05:49:53.558Z,10.90
2023-02-22T05:52:25.582Z,10.83
2023-02-22T05:54:54.993Z,10.57
2023-02-22T05:57:24.410Z,10.20
2023-02-22T05:59:53.973Z,11.17
2023-02-22T06:02:23.336Z,11.20
2023-02-22T06:04:53.032Z,10.90
2023-02-22T06:07:25.401Z,12.90
2023-02-22T06:09:54.789Z,11.30
2023-02-22T06:12:24.199Z,11.57
2023-02-22T06:14:53.600Z,11.93
2023-02-22T06:17:22.993Z,12.07
2023-02-22T06:19:52.370Z,13.50
2023-02-22T06:22:25.159Z,13.30
2023-02-22T06:24:55.741Z,12.60
2023-02-22T06:27:27.435Z,12.10
2023-02-22T06:29:56.850Z,12.80
2023-02-22T06:32:26.256Z,13.57
2023-02-22T06:34:55.687Z,15.40
2023-02-22T06:37:27.715Z,15.50
2023-02-22T06:39:59.179Z,12.70
2023-02-22T06:42:30.111Z,14.20
2023-02-22T06:44:59.598Z,14.90
2023-02-22T06:47:28.975Z,14.60
2023-02-22T06:50:01.936Z,14.27
2023-02-22T06:52:33.884Z,16.17
2023-02-22T06:55:03.412Z,14.93
2023-02-22T06:57:32.778Z,15.17
2023-02-22T07:00:02.199Z,16.53
2023-02-22T07:02:31.559Z,15.60
2023-02-22T07:05:01.027Z,15.53
2023-02-22T07:07:30.387Z,17.23
2023-02-22T07:10:02.400Z,16.73
2023-02-22T07:12:31.908Z,17.30
2023-02-22T07:15:01.300Z,15.53
2023-02-22T07:17:30.710Z,16.47
2023-02-22T07:20:00.145Z,16.20
2023-02-22T07:22:30.725Z,15.40
2023-02-22T07:25:03.006Z,18.40
2023-02-22T07:27:32.668Z,17.30
2023-02-22T07:30:02.032Z,16.73
2023-02-22T07:32:31.521Z,17.83
2023-02-22T07:35:02.862Z,17.70
2023-02-22T07:37:32.524Z,17.20
2023-02-22T07:40:04.557Z,18.47
2023-02-22T07:42:33.968Z,18.97
2023-02-22T07:45:03.367Z,17.77
2023-02-22T07:47:32.773Z,16.30
2023-02-22T07:50:02.212Z,18.97
2023-02-22T07:52:31.825Z,17.60
2023-02-22T07:55:04.030Z,14.90
2023-02-22T07:57:33.412Z,19.30
2023-02-22T08:00:02.821Z,17.80
2023-02-22T08:02:32.278Z,17.37
2023-02-22T08:05:01.898Z,18.13
2023-02-22T08:07:31.258Z,16.20
2023-02-22T08:10:07.622Z,16.90
2023-02-22T08:12:37.523Z,17.00
2023-02-22T08:15:07.789Z,16.60
2023-02-22T08:17:39.689Z,15.30
2023-02-22T08:20:10.193Z,16.27
2023-02-22T08:22:40.211Z,15.50
2023-02-22T08:25:12.536Z,15.10
2023-02-22T08:27:42.127Z,15.60
2023-02-22T08:30:15.917Z,15.23
2023-02-22T08:32:45.350Z,15.80
2023-02-22T08:35:15.072Z,13.43
2023-02-22T08:37:45.997Z,14.07
2023-02-22T08:40:21.283Z,15.60
2023-02-22T08:42:50.770Z,13.97
2023-02-22T08:45:20.704Z,15.00
2023-02-22T08:47:50.093Z,14.17
2023-02-22T08:50:24.036Z,14.67
2023-02-22T08:52:53.846Z,14.20
2023-02-22T08:55:27.472Z,13.27
2023-02-22T08:57:56.919Z,13.70
2023-02-22T09:00:26.792Z,12.67
2023-02-22T09:02:56.190Z,13.50
2023-02-22T09:05:25.638Z,13.90
2023-02-22T09:07:55.131Z,13.73
2023-02-22T09:10:30.411Z,13.77
2023-02-22T09:13:01.201Z,13.17
2023-02-22T09:15:31.235Z,13.47
2023-02-22T09:18:01.301Z,13.00
2023-02-22T09:20:31.154Z,13.20
2023-02-22T09:23:02.963Z,14.00
2023-02-22T09:25:36.269Z,13.90
2023-02-22T09:28:05.706Z,14.47
2023-02-22T09:30:36.551Z,14.43
2023-02-22T09:33:10.203Z,14.60
2023-02-22T09:35:42.461Z,13.77
2023-02-22T09:38:13.138Z,14.50
2023-02-22T09:40:48.208Z,14.63
2023-02-22T09:43:38.212Z,16.37
2023-02-22T09:46:19.524Z,14.07
2023-02-22T09:48:58.091Z,13.80
2023-02-22T09:51:31.222Z,14.63
2023-02-22T09:54:03.039Z,14.43
2023-02-22T09:56:36.654Z,13.37
2023-02-22T09:59:08.963Z,14.97
2023-02-22T10:01:43.490Z,14.40
2023-02-22T10:04:19.290Z,12.17
2023-02-22T10:07:06.070Z,14.40
2023-02-22T10:09:38.195Z,13.53
2023-02-22T10:12:14.086Z,12.90
2023-02-22T10:15:11.892Z,13.70
2023-02-22T10:17:48.172Z,12.57
2023-02-22T10:20:25.312Z,13.77
2023-02-22T10:23:06.753Z,12.33
2023-02-22T10:25:40.345Z,12.80
2023-02-22T10:28:18.634Z,12.30
2023-02-22T10:30:54.965Z,13.30
2023-02-22T10:33:26.596Z,12.97
2023-02-22T10:35:57.088Z,12.70
2023-02-22T10:38:28.538Z,14.07
2023-02-22T10:41:00.449Z,13.80
2023-02-22T10:43:33.691Z,13.53
2023-02-22T10:46:05.591Z,12.07
2023-02-22T10:48:39.026Z,14.17
2023-02-22T10:51:10.468Z,13.60
2023-02-22T10:53:41.112Z,12.87
2023-02-22T10:56:18.362Z,12.03
2023-02-22T10:58:53.470Z,12.07
2023-02-22T11:01:38.285Z,13.00
2023-02-22T11:04:14.790Z,12.40
2023-02-22T11:06:46.008Z,12.67
2023-02-22T11:09:17.952Z,12.37
2023-02-22T11:11:49.121Z,12.63
2023-02-22T11:14:28.734Z,12.57
2023-02-22T11:16:59.692Z,12.43
2023-02-22T11:19:30.667Z,12.10
2023-02-22T11:22:02.458Z,11.63
2023-02-22T11:24:43.665Z,12.60
2023-02-22T11:27:27.182Z,11.33
2023-02-22T11:29:59.852Z,11.23
2023-02-22T11:32:29.249Z,12.37
2023-02-22T11:35:35.433Z,12.20
2023-02-22T11:38:21.085Z,11.43
2023-02-22T11:41:10.918Z,12.70
2023-02-22T11:43:40.522Z,12.50
2023-02-22T11:46:14.583Z,12.27
2023-02-22T11:48:48.549Z,12.80
2023-02-22T11:51:30.326Z,13.00
2023-02-22T11:54:31.206Z,14.60
2023-02-22T11:57:12.527Z,12.57
2023-02-22T11:59:49.533Z,13.00
2023-02-22T12:02:32.524Z,11.57
2023-02-22T12:05:17.963Z,13.50
2023-02-22T12:07:56.479Z,11.30
2023-02-22T12:10:32.313Z,11.00
2023-02-22T12:13:17.911Z,11.80
2023-02-22T12:15:51.012Z,10.37
2023-02-22T12:18:24.805Z,10.57
2023-02-22T12:20:56.814Z,12.03
2023-02-22T12:23:32.858Z,11.10
2023-02-22T12:26:05.336Z,12.10
2023-02-22T12:28:38.572Z,11.17
2023-02-22T12:31:17.098Z,10.77
2023-02-22T12:33:54.239Z,11.27
2023-02-22T12:36:28.228Z,10.97
2023-02-22T12:39:07.484Z,11.40
2023-02-22T12:41:40.458Z,10.40
2023-02-22T12:44:12.515Z,12.10
2023-02-22T12:46:43.564Z,10.93
2023-02-22T12:49:20.902Z,11.17
2023-02-22T12:51:55.814Z,11.20
2023-02-22T12:54:34.436Z,10.70
2023-02-22T12:57:09.860Z,12.20
2023-02-22T12:59:44.183Z,11.53
2023-02-22T13:02:20.086Z,11.23
2023-02-22T13:04:49.813Z,10.77
2023-02-22T13:07:30.682Z,10.83
2023-02-22T13:10:14.392Z,12.03
2023-02-22T13:12:48.479Z,11.40
2023-02-22T13:15:23.131Z,11.80
2023-02-22T13:18:01.665Z,11.60
2023-02-22T13:20:34.287Z,10.97
2023-02-22T13:23:06.605Z,11.60
2023-02-22T13:25:44.217Z,12.10
2023-02-22T13:28:24.005Z,10.23
2023-02-22T13:31:04.789Z,11.63
2023-02-22T13:33:44.825Z,11.50
2023-02-22T13:36:22.988Z,11.00
2023-02-22T13:39:10.488Z,11.37
2023-02-22T13:41:55.125Z,10.23
2023-02-22T13:44:47.249Z,10.73
2023-02-22T13:47:55.631Z,9.73
2023-02-22T13:50:45.630Z,10.80
2023-02-22T13:53:18.282Z,9.93
2023-02-22T13:55:51.436Z,9.47
2023-02-22T13:58:23.729Z,11.00
2023-02-22T14:00:55.811Z,9.30
2023-02-22T14:03:41.089Z,9.90
2023-02-22T14:06:12.854Z,9.83
2023-02-22T14:08:49.068Z,11.20
2023-02-22T14:11:47.786Z,9.00
2023-02-22T14:14:20.976Z,10.37
2023-02-22T14:17:24.476Z,11.30
2023-02-22T14:20:14.800Z,8.87
2023-02-22T14:22:47.688Z,9.80
2023-02-22T14:25:39.864Z,9.30
2023-02-22T14:28:11.340Z,9.53
2023-02-22T14:30:43.375Z,9.70
2023-02-22T14:33:44.219Z,10.03
2023-02-22T14:36:14.214Z,9.27
2023-02-22T14:38:46.122Z,9.43
2023-02-22T14:41:17.922Z,10.67
2023-02-22T14:43:48.193Z,10.93
2023-02-22T14:46:26.735Z,10.50
2023-02-22T14:49:01.209Z,10.33
2023-02-22T14:51:33.992Z,10.63
2023-02-22T14:54:06.749Z,10.47
2023-02-22T14:56:44.172Z,11.50
2023-02-22T14:59:21.969Z,11.90
2023-02-22T15:02:11.642Z,12.00
2023-02-22T15:04:44.027Z,12.17
2023-02-22T15:07:27.379Z,11.47
2023-02-22T15:10:17.727Z,12.03
2023-02-22T15:12:54.668Z,10.63
2023-02-22T15:15:27.541Z,11.20
2023-02-22T15:18:00.966Z,12.03
2023-02-22T15:20:32.205Z,12.90
2023-02-22T15:23:02.377Z,12.20
2023-02-22T15:25:33.437Z,10.83
2023-02-22T15:28:09.500Z,11.70
2023-02-22T15:30:39.175Z,11.83
2023-02-22T15:33:24.285Z,12.23
2023-02-22T15:35:58.273Z,11.83
2023-02-22T15:38:31.758Z,11.90
2023-02-22T15:41:05.757Z,13.23
2023-02-22T15:43:35.221Z,11.57
2023-02-22T15:46:06.849Z,13.03
2023-02-22T15:48:41.299Z,11.47
2023-02-22T15:51:13.839Z,12.50
2023-02-22T15:53:45.320Z,12.00
2023-02-22T15:56:17.932Z,10.73
2023-02-22T15:58:49.538Z,11.90
2023-02-22T16:01:21.433Z,11.60
2023-02-22T16:03:56.151Z,11.37
2023-02-22T16:06:33.451Z,11.00
2023-02-22T16:09:04.779Z,10.60
2023-02-22T16:11:38.484Z,11.40
2023-02-22T16:14:10.250Z,11.70
2023-02-22T16:16:43.287Z,10.73
2023-02-22T16:19:35.481Z,11.40
2023-02-22T16:22:13.507Z,14.37
2023-02-22T16:24:43.415Z,11.27
2023-02-22T16:27:21.800Z,11.20
2023-02-22T16:30:15.536Z,11.50
2023-02-22T16:32:52.252Z,13.70
2023-02-22T16:35:28.565Z,11.70
2023-02-22T16:38:01.281Z,11.90
2023-02-22T16:40:34.824Z,11.10
2023-02-22T16:43:06.652Z,12.00
2023-02-22T16:45:36.119Z,11.63
2023-02-22T16:48:14.878Z,13.40
2023-02-22T16:50:46.869Z,13.30
2023-02-22T16:53:19.950Z,12.10
2023-02-22T16:55:49.938Z,11.30
2023-02-22T16:58:20.974Z,11.93
2023-02-22T17:00:50.636Z,13.20
2023-02-22T17:03:21.046Z,13.10
2023-02-22T17:05:53.419Z,12.20
2023-02-22T17:08:22.970Z,12.43
2023-02-22T17:10:56.734Z,11.77
2023-02-22T17:13:27.577Z,10.70
2023-02-22T17:15:57.243Z,13.30
2023-02-22T17:18:33.884Z,12.57
2023-02-22T17:21:06.207Z,13.00
2023-02-22T17:23:36.112Z,13.47
2023-02-22T17:26:07.018Z,12.70
2023-02-22T17:28:36.434Z,13.10
2023-02-22T17:31:05.919Z,12.20
2023-02-22T17:33:38.247Z,12.43
2023-02-22T17:36:11.134Z,14.27
2023-02-22T17:38:41.988Z,13.20
2023-02-22T17:41:12.023Z,13.73
2023-02-22T17:43:41.441Z,12.83
2023-02-22T17:46:11.121Z,14.37
2023-02-22T17:48:40.968Z,14.63
2023-02-22T17:51:15.044Z,14.20
2023-02-22T17:53:44.454Z,13.90
2023-02-22T17:56:18.546Z,12.87
2023-02-22T17:58:49.716Z,14.20
2023-02-22T18:01:24.827Z,12.80
2023-02-22T18:03:54.260Z,13.80
2023-02-22T18:06:28.470Z,13.27
2023-02-22T18:08:59.770Z,13.50
2023-02-22T18:11:32.674Z,13.20
2023-02-22T18:14:02.615Z,13.77
2023-02-22T18:16:36.390Z,12.40
2023-02-22T18:19:05.972Z,12.93
2023-02-22T18:21:38.797Z,11.97
2023-02-22T18:24:09.057Z,12.23
2023-02-22T18:26:39.048Z,13.60
2023-02-22T18:29:12.320Z,11.20
2023-02-22T18:31:41.800Z,11.53
2023-02-22T18:34:13.442Z,12.97
2023-02-22T18:36:45.510Z,14.77
2023-02-22T18:39:14.875Z,10.77
2023-02-22T18:41:45.890Z,10.00
2023-02-22T18:44:15.344Z,10.70
2023-02-22T18:46:46.059Z,10.33
2023-02-22T18:49:17.277Z,10.40
2023-02-22T18:51:49.227Z,11.20
2023-02-22T18:54:19.766Z,11.40
2023-02-22T18:56:49.192Z,10.77
2023-02-22T18:59:18.701Z,10.90
2023-02-22T19:01:49.165Z,13.10
2023-02-22T19:04:18.741Z,13.00
2023-02-22T19:06:51.041Z,12.23
2023-02-22T19:09:20.570Z,11.80
2023-02-22T19:11:50.916Z,11.47
2023-02-22T19:14:21.222Z,11.60
2023-02-22T19:16:52.206Z,11.23
2023-02-22T19:19:26.473Z,11.90
2023-02-22T19:21:59.011Z,12.43
2023-02-22T19:24:28.719Z,13.03
2023-02-22T19:26:59.968Z,12.70
2023-02-22T19:29:31.138Z,12.13
2023-02-22T19:32:00.650Z,13.57
2023-02-22T19:34:31.306Z,13.17
2023-02-22T19:37:05.209Z,12.87
2023-02-22T19:39:38.482Z,13.70
2023-02-22T19:42:09.772Z,13.97
2023-02-22T19:44:40.054Z,13.87
2023-02-22T19:47:10.918Z,12.57
2023-02-22T19:49:41.093Z,12.17
2023-02-22T19:52:13.239Z,12.63
2023-02-22T19:54:42.882Z,15.10
2023-02-22T19:57:13.309Z,13.70
2023-02-22T19:59:42.721Z,13.03
2023-02-22T20:02:13.260Z,14.60
2023-02-22T20:04:42.746Z,13.83
2023-02-22T20:07:14.769Z,12.83
2023-02-22T20:09:44.491Z,12.63
2023-02-22T20:12:14.385Z,14.77
2023-02-22T20:14:43.787Z,12.97
2023-02-22T20:17:13.246Z,12.80
2023-02-22T20:19:43.120Z,13.40
2023-02-22T20:22:15.188Z,13.53
2023-02-22T20:24:44.615Z,12.43
2023-02-22T20:27:14.008Z,12.03
2023-02-22T20:29:43.766Z,14.20
2023-02-22T20:32:15.986Z,14.20
2023-02-22T20:34:48.301Z,13.07
2023-02-22T20:37:21.628Z,13.03
2023-02-22T20:39:53.293Z,12.70
2023-02-22T20:42:22.963Z,11.90
2023-02-22T20:44:52.662Z,12.73
2023-02-22T20:47:22.158Z,11.87
2023-02-22T20:49:53.064Z,12.80
2023-02-22T20:52:25.040Z,11.20
2023-02-22T20:54:56.402Z,11.97
2023-02-22T20:57:25.772Z,13.63
2023-02-22T20:59:55.132Z,12.57
2023-02-22T21:02:24.782Z,13.47
2023-02-22T21:04:54.214Z,12.67
2023-02-22T21:07:26.183Z,11.90
2023-02-22T21:09:55.544Z,12.50
2023-02-22T21:12:25.354Z,12.83
2023-02-22T21:14:54.764Z,13.40
2023-02-22T21:17:28.835Z,11.57
2023-02-22T21:19:58.672Z,12.00
2023-02-22T21:22:30.826Z,11.37
2023-02-22T21:25:01.491Z,14.00
2023-02-22T21:27:30.970Z,13.70
2023-02-22T21:30:00.337Z,12.87
2023-02-22T21:32:30.022Z,11.87
2023-02-22T21:34:59.454Z,13.40
2023-02-22T21:37:31.419Z,13.30
2023-02-22T21:40:00.782Z,13.00
2023-02-22T21:42:30.265Z,13.60
2023-02-22T21:44:59.632Z,14.87
2023-02-22T21:47:31.180Z,13.50
2023-02-22T21:50:01.728Z,13.03
2023-02-22T21:52:33.754Z,14.13
2023-02-22T21:55:03.494Z,14.07
2023-02-22T21:57:33.047Z,13.87
2023-02-22T22:00:12.826Z,13.80
2023-02-22T22:02:42.220Z,13.43
2023-02-22T22:05:16.990Z,13.57
2023-02-22T22:07:48.990Z,14.23
2023-02-22T22:10:26.879Z,13.17
2023-02-22T22:12:58.132Z,13.40
2023-02-22T22:15:30.201Z,13.90
2023-02-22T22:18:06.125Z,13.33
2023-02-22T22:20:37.970Z,13.60
2023-02-22T22:23:10.488Z,14.17
2023-02-22T22:25:40.965Z,13.07
2023-02-22T22:28:11.371Z,14.67
2023-02-22T22:30:41.156Z,14.13
2023-02-22T22:33:11.431Z,14.57
2023-02-22T22:35:41.920Z,13.60
2023-02-22T22:38:15.501Z,14.37
2023-02-22T22:40:50.919Z,14.07
2023-02-22T22:43:20.367Z,14.33
2023-02-22T22:45:49.766Z,14.03
2023-02-22T22:48:20.225Z,14.10
2023-02-22T22:51:02.490Z,14.43
2023-02-22T22:53:36.471Z,14.30
2023-02-22T22:56:07.853Z,16.13
2023-02-22T22:58:38.072Z,13.80
2023-02-22T23:01:17.672Z,13.73
2023-02-22T23:03:55.299Z,14.97
2023-02-22T23:06:27.684Z,14.13
2023-02-22T23:09:10.237Z,14.43
2023-02-22T23:11:44.412Z,15.30
2023-02-22T23:14:15.409Z,14.93
2023-02-22T23:16:45.493Z,15.30
2023-02-22T23:19:15.682Z,14.40
2023-02-22T23:21:46.214Z,14.47
2023-02-22T23:24:21.042Z,15.33
2023-02-22T23:26:51.081Z,13.43
2023-02-22T23:29:21.806Z,16.00
2023-02-22T23:31:54.524Z,15.77
2023-02-22T23:34:25.789Z,16.07
2023-02-22T23:36:55.623Z,13.80
2023-02-22T23:39:28.196Z,13.97
2023-02-22T23:41:59.295Z,16.20
2023-02-22T23:44:29.889Z,15.67
2023-02-22T23:46:59.302Z,16.77
2023-02-22T23:49:35.749Z,16.07
2023-02-22T23:52:05.332Z,16.43
2023-02-22T23:54:43.882Z,16.70
2023-02-22T23:57:17.541Z,15.70
2023-02-22T23:59:46.934Z,18.97
